createdAt,value
2022-11-07T00:02:05.343Z,100238.91
2022-11-07T00:04:35.088Z,100237.28
2022-11-07T00:07:04.841Z,100238.19
2022-11-07T00:09:34.221Z,100236.72
2022-11-07T00:12:03.689Z,100241.28
2022-11-07T00:14:35.808Z,100246.41
2022-11-07T00:17:05.213Z,100240.44
2022-11-07T00:19:34.857Z,100250.19
2022-11-07T00:22:04.271Z,100259.09
2022-11-07T00:24:33.639Z,100264.13
2022-11-07T00:27:03.090Z,100268.63
2022-11-07T00:29:35.095Z,100271.28
2022-11-07T00:32:04.491Z,100269.72
2022-11-07T00:34:35.480Z,100265.50
2022-11-07T00:37:04.955Z,100272.47
2022-11-07T00:39:34.321Z,100282.75
2022-11-07T00:42:03.709Z,100279.31
2022-11-07T00:44:35.683Z,100269.97
2022-11-07T00:47:05.091Z,100281.16
2022-11-07T00:49:34.492Z,100279.53
2022-11-07T00:52:03.866Z,100276.94
2022-11-07T00:54:33.298Z,100290.72
2022-11-07T00:57:03.160Z,100273.91
2022-11-07T00:59:35.212Z,100277.22
2022-11-07T01:02:04.655Z,100285.19
2022-11-07T01:04:46.605Z,100278.97
2022-11-07T01:07:16.003Z,100292.91
2022-11-07T01:09:45.415Z,100286.31
2022-11-07T01:12:14.826Z,100288.78
2022-11-07T01:14:46.811Z,100299.00
2022-11-07T01:17:16.241Z,100306.88
2022-11-07T01:19:45.615Z,100298.34
2022-11-07T01:22:15.188Z,100307.81
2022-11-07T01:24:44.798Z,100294.06
2022-11-07T01:27:14.163Z,100294.94
2022-11-07T01:29:46.232Z,100298.44
2022-11-07T01:32:15.606Z,100299.47
2022-11-07T01:34:45.040Z,100297.84
2022-11-07T01:37:14.603Z,100306.31
2022-11-07T01:39:43.998Z,100305.50
2022-11-07T01:42:13.596Z,100301.91
2022-11-07T01:44:58.347Z,100297.66
2022-11-07T01:47:31.164Z,100298.72
2022-11-07T01:50:01.576Z,100291.81
2022-11-07T01:52:34.029Z,100285.03
2022-11-07T01:55:08.339Z,100288.44
2022-11-07T01:57:41.035Z,100296.13
2022-11-07T02:00:17.160Z,100289.31
2022-11-07T02:02:47.800Z,100292.81
2022-11-07T02:05:22.592Z,100286.19
2022-11-07T02:07:51.997Z,100292.22
2022-11-07T02:10:21.492Z,100288.34
2022-11-07T02:12:50.932Z,100290.84
2022-11-07T02:15:22.910Z,100294.34
2022-11-07T02:17:52.487Z,100292.66
2022-11-07T02:20:21.865Z,100291.09
2022-11-07T02:22:54.907Z,100287.63
2022-11-07T02:25:27.023Z,100294.56
2022-11-07T02:27:59.326Z,100287.84
2022-11-07T02:30:31.235Z,100296.34
2022-11-07T02:33:00.644Z,100295.56
2022-11-07T02:35:40.660Z,100302.56
2022-11-07T02:38:12.451Z,100299.06
2022-11-07T02:40:46.402Z,100284.69
2022-11-07T02:43:16.636Z,100286.69
2022-11-07T02:45:47.783Z,100287.63
2022-11-07T02:48:17.279Z,100289.25
2022-11-07T02:50:48.514Z,100299.88
2022-11-07T02:53:18.183Z,100295.47
2022-11-07T02:55:50.312Z,100295.47
2022-11-07T02:58:19.885Z,100301.56
2022-11-07T03:00:49.307Z,100293.09
2022-11-07T03:03:18.667Z,100295.72
2022-11-07T03:05:48.064Z,100298.22
2022-11-07T03:08:17.440Z,100289.06
2022-11-07T03:10:46.804Z,100289.09
2022-11-07T03:13:18.779Z,100294.41
2022-11-07T03:15:48.288Z,100297.97
2022-11-07T03:18:17.684Z,100291.31
2022-11-07T03:20:47.100Z,100289.53
2022-11-07T03:23:17.010Z,100298.06
2022-11-07T03:25:46.548Z,100294.75
2022-11-07T03:28:18.517Z,100299.06
2022-11-07T03:30:47.899Z,100298.28
2022-11-07T03:33:17.627Z,100304.34
2022-11-07T03:35:47.343Z,100290.81
2022-11-07T03:38:16.725Z,100300.31
2022-11-07T03:40:48.302Z,100291.88
2022-11-07T03:43:20.271Z,100299.44
2022-11-07T03:45:49.669Z,100300.19
2022-11-07T03:48:19.291Z,100303.47
2022-11-07T03:50:48.806Z,100307.09
2022-11-07T03:53:23.884Z,100310.59
2022-11-07T03:55:57.280Z,100298.69
2022-11-07T03:58:29.348Z,100301.25
2022-11-07T04:00:58.738Z,100301.44
2022-11-07T04:03:28.229Z,100307.56
2022-11-07T04:05:57.587Z,100306.66
2022-11-07T04:08:27.018Z,100302.09
2022-11-07T04:10:56.556Z,100292.47
2022-11-07T04:13:38.463Z,100294.41
2022-11-07T04:16:23.801Z,100285.22
2022-11-07T04:18:53.184Z,100299.69
2022-11-07T04:21:22.583Z,100297.28
2022-11-07T04:23:52.093Z,100286.97
2022-11-07T04:26:34.039Z,100293.88
2022-11-07T04:29:03.544Z,100300.91
2022-11-07T04:31:35.524Z,100295.75
2022-11-07T04:34:04.905Z,100292.59
2022-11-07T04:36:36.259Z,100292.59
2022-11-07T04:39:05.703Z,100299.56
2022-11-07T04:41:35.088Z,100296.97
2022-11-07T04:44:04.475Z,100301.25
2022-11-07T04:46:36.456Z,100299.72
2022-11-07T04:49:05.900Z,100303.88
2022-11-07T04:51:35.297Z,100299.63
2022-11-07T04:54:04.676Z,100293.72
2022-11-07T04:56:34.675Z,100297.06
2022-11-07T04:59:04.208Z,100290.16
2022-11-07T05:01:36.359Z,100303.81
2022-11-07T05:04:06.015Z,100308.06
2022-11-07T05:06:37.478Z,100306.16
2022-11-07T05:09:08.769Z,100292.50
2022-11-07T05:11:38.159Z,100286.53
2022-11-07T05:14:08.528Z,100302.66
2022-11-07T05:16:40.573Z,100302.91
2022-11-07T05:19:09.965Z,100297.66
2022-11-07T05:21:39.379Z,100295.63
2022-11-07T05:24:06.811Z,100299.31
2022-11-07T05:26:36.204Z,100291.53
2022-11-07T05:29:05.962Z,100298.63
2022-11-07T05:31:35.326Z,100297.88
2022-11-07T05:34:10.897Z,100294.34
2022-11-07T05:36:42.968Z,100295.06
2022-11-07T05:39:12.336Z,100294.03
2022-11-07T05:41:41.712Z,100306.00
2022-11-07T05:44:12.713Z,100300.78
2022-11-07T05:46:42.088Z,100305.69
2022-11-07T05:49:14.074Z,100290.13
2022-11-07T05:51:43.436Z,100284.00
2022-11-07T05:54:13.071Z,100295.88
2022-11-07T05:56:44.035Z,100289.00
2022-11-07T05:59:13.997Z,100288.75
2022-11-07T06:01:44.788Z,100285.16
2022-11-07T06:04:18.666Z,100277.38
2022-11-07T06:06:48.062Z,100267.25
2022-11-07T06:09:17.448Z,100270.63
2022-11-07T06:11:46.818Z,100272.16
2022-11-07T06:14:16.200Z,100268.59
2022-11-07T06:16:45.628Z,100289.25
2022-11-07T06:19:17.780Z,100277.22
2022-11-07T06:21:47.152Z,100270.34
2022-11-07T06:24:16.759Z,100277.13
2022-11-07T06:26:46.186Z,100272.72
2022-11-07T06:29:15.552Z,100269.16
2022-11-07T06:31:44.997Z,100267.66
2022-11-07T06:34:14.472Z,100268.59
2022-11-07T06:36:54.015Z,100276.31
2022-11-07T06:39:28.268Z,100278.00
2022-11-07T06:41:57.826Z,100275.41
2022-11-07T06:44:27.309Z,100282.38
2022-11-07T06:46:56.797Z,100288.28
2022-11-07T06:49:26.357Z,100284.78
2022-11-07T06:51:58.382Z,100285.78
2022-11-07T06:54:27.964Z,100288.19
2022-11-07T06:56:57.477Z,100294.22
2022-11-07T06:59:27.047Z,100289.81
2022-11-07T07:01:56.550Z,100294.25
2022-11-07T07:04:25.973Z,100298.59
2022-11-07T07:06:58.021Z,100303.72
2022-11-07T07:09:28.321Z,100302.97
2022-11-07T07:11:57.782Z,100309.19
2022-11-07T07:14:27.210Z,100299.97
2022-11-07T07:16:58.817Z,100306.00
2022-11-07T07:19:28.302Z,100306.94
2022-11-07T07:22:00.348Z,100311.38
2022-11-07T07:24:29.817Z,100315.75
2022-11-07T07:26:59.201Z,100322.72
2022-11-07T07:29:28.636Z,100314.25
2022-11-07T07:31:58.122Z,100310.84
2022-11-07T07:34:27.550Z,100321.22
2022-11-07T07:36:59.923Z,100321.38
2022-11-07T07:39:30.824Z,100317.13
2022-11-07T07:42:00.458Z,100327.59
2022-11-07T07:44:29.964Z,100322.50
2022-11-07T07:47:00.291Z,100330.31
2022-11-07T07:49:29.799Z,100332.16
2022-11-07T07:52:01.781Z,100337.44
2022-11-07T07:54:31.152Z,100331.47
2022-11-07T07:57:01.536Z,100340.94
2022-11-07T07:59:31.319Z,100349.75
2022-11-07T08:02:00.788Z,100349.91
2022-11-07T08:04:30.341Z,100349.16
2022-11-07T08:07:02.388Z,100357.88
2022-11-07T08:09:36.740Z,100358.75
2022-11-07T08:12:06.792Z,100359.84
2022-11-07T08:14:36.191Z,100358.28
2022-11-07T08:17:05.973Z,100364.38
2022-11-07T08:19:35.454Z,100357.56
2022-11-07T08:22:07.428Z,100375.69
2022-11-07T08:24:36.800Z,100374.91
2022-11-07T08:27:06.408Z,100382.75
2022-11-07T08:29:36.062Z,100399.19
2022-11-07T08:32:05.453Z,100397.53
2022-11-07T08:34:34.944Z,100395.19
2022-11-07T08:37:07.265Z,100392.59
2022-11-07T08:39:36.630Z,100400.28
2022-11-07T08:42:06.303Z,100402.97
2022-11-07T08:44:36.747Z,100416.72
2022-11-07T08:47:08.638Z,100407.47
2022-11-07T08:49:38.312Z,100416.19
2022-11-07T08:52:10.485Z,100417.22
2022-11-07T08:54:40.021Z,100413.19
2022-11-07T08:57:10.524Z,100418.66
2022-11-07T08:59:40.129Z,100443.91
2022-11-07T09:04:59.159Z,100431.63
2022-11-07T09:07:31.197Z,100445.34
2022-11-07T09:10:00.631Z,100445.44
2022-11-07T09:12:30.017Z,100441.13
2022-11-07T09:14:59.535Z,100437.91
2022-11-07T09:17:28.995Z,100427.75
2022-11-07T09:19:58.540Z,100448.69
2022-11-07T09:22:28.029Z,100435.38
2022-11-07T09:25:00.157Z,100433.66
2022-11-07T09:27:29.545Z,100434.69
2022-11-07T09:29:59.023Z,100435.72
2022-11-07T09:32:44.492Z,100437.81
2022-11-07T09:35:16.801Z,100459.06
2022-11-07T09:37:46.544Z,100459.06
2022-11-07T09:40:26.161Z,100460.84
2022-11-07T09:43:04.549Z,100473.00
2022-11-07T09:45:41.514Z,100470.84
2022-11-07T09:48:19.604Z,100473.72
2022-11-07T09:50:49.315Z,100472.19
2022-11-07T09:53:31.316Z,100484.25
2022-11-07T09:56:04.887Z,100484.19
2022-11-07T09:58:37.239Z,100496.41
2022-11-07T10:01:09.799Z,100493.97
2022-11-07T10:03:49.113Z,100497.47
2022-11-07T10:06:26.247Z,100506.53
2022-11-07T10:09:01.497Z,100503.09
2022-11-07T10:11:37.672Z,100515.94
2022-11-07T10:14:19.232Z,100518.66
2022-11-07T10:17:02.857Z,100528.03
2022-11-07T10:19:58.060Z,100528.88
2022-11-07T10:22:42.414Z,100542.50
2022-11-07T10:25:22.755Z,100531.94
2022-11-07T10:28:08.134Z,100529.38
2022-11-07T10:30:38.024Z,100526.66
2022-11-07T10:33:13.969Z,100520.47
2022-11-07T10:35:47.033Z,100529.91
2022-11-07T10:38:22.357Z,100522.22
2022-11-07T10:40:53.345Z,100522.31
2022-11-07T10:43:32.960Z,100532.84
2022-11-07T10:46:02.976Z,100520.13
2022-11-07T10:48:33.275Z,100523.28
2022-11-07T10:51:02.734Z,100541.16
2022-11-07T10:53:32.268Z,100531.75
2022-11-07T10:56:01.776Z,100531.53
2022-11-07T10:58:39.431Z,100534.19
2022-11-07T11:01:11.043Z,100540.22
2022-11-07T11:03:45.161Z,100530.56
2022-11-07T11:06:27.010Z,100521.00
2022-11-07T11:08:56.564Z,100516.66
2022-11-07T11:11:37.400Z,100510.72
2022-11-07T11:14:14.429Z,100517.78
2022-11-07T11:16:45.105Z,100518.72
2022-11-07T11:19:23.517Z,100529.22
2022-11-07T11:21:54.720Z,100531.94
2022-11-07T11:24:37.388Z,100530.41
2022-11-07T11:27:14.227Z,100525.22
2022-11-07T11:29:51.669Z,100537.44
2022-11-07T11:32:27.106Z,100541.59
2022-11-07T11:35:05.963Z,100538.22
2022-11-07T11:37:37.352Z,100536.63
2022-11-07T11:40:12.151Z,100527.81
2022-11-07T11:42:48.558Z,100536.44
2022-11-07T11:45:24.568Z,100529.50
2022-11-07T11:48:00.732Z,100532.16
2022-11-07T11:50:38.848Z,100526.06
2022-11-07T11:53:10.307Z,100524.41
2022-11-07T11:55:51.957Z,100531.94
2022-11-07T11:58:30.709Z,100533.75
2022-11-07T12:01:06.901Z,100533.91
2022-11-07T12:04:08.106Z,100539.19
2022-11-07T12:06:41.676Z,100542.50
2022-11-07T12:09:27.796Z,100550.19
2022-11-07T12:12:07.000Z,100548.28
2022-11-07T12:14:58.329Z,100544.81
2022-11-07T12:17:37.988Z,100558.69
2022-11-07T12:20:15.356Z,100563.78
2022-11-07T12:22:55.476Z,100560.78
2022-11-07T12:25:31.891Z,100552.19
2022-11-07T12:28:06.717Z,100549.53
2022-11-07T12:30:42.599Z,100569.44
2022-11-07T12:33:24.461Z,100552.19
2022-11-07T12:35:57.691Z,100543.78
2022-11-07T12:38:50.963Z,100544.72
2022-11-07T12:41:29.105Z,100548.91
2022-11-07T12:44:07.302Z,100546.13
2022-11-07T12:46:44.253Z,100540.81
2022-11-07T12:49:55.260Z,100540.13
2022-11-07T12:52:46.483Z,100543.47
2022-11-07T12:55:22.229Z,100538.44
2022-11-07T12:57:53.747Z,100532.50
2022-11-07T13:00:29.512Z,100531.66
2022-11-07T13:03:09.398Z,100531.69
2022-11-07T13:05:50.172Z,100530.06
2022-11-07T13:08:25.488Z,100534.47
2022-11-07T13:11:01.228Z,100543.06
2022-11-07T13:13:34.999Z,100532.88
2022-11-07T13:16:21.009Z,100528.66
2022-11-07T13:18:50.490Z,100540.81
2022-11-07T13:21:20.081Z,100534.84
2022-11-07T13:23:52.216Z,100534.03
2022-11-07T13:26:47.115Z,100545.19
2022-11-07T13:29:27.359Z,100536.84
2022-11-07T13:32:09.127Z,100539.53
2022-11-07T13:34:51.321Z,100535.97
2022-11-07T13:37:25.703Z,100537.63
2022-11-07T13:40:04.375Z,100537.53
2022-11-07T13:42:35.528Z,100538.16
2022-11-07T13:45:21.117Z,100559.13
2022-11-07T13:47:50.669Z,100545.38
2022-11-07T13:50:24.261Z,100548.94
2022-11-07T13:53:01.989Z,100546.00
2022-11-07T13:55:43.265Z,100549.34
2022-11-07T13:58:14.940Z,100550.13
2022-11-07T14:00:44.503Z,100553.75
2022-11-07T14:03:25.816Z,100541.66
2022-11-07T14:05:55.679Z,100529.63
2022-11-07T14:08:28.581Z,100539.91
2022-11-07T14:11:00.727Z,100539.00
2022-11-07T14:13:36.926Z,100531.13
2022-11-07T14:16:17.744Z,100525.84
2022-11-07T14:18:50.955Z,100520.72
2022-11-07T14:21:24.867Z,100513.84
2022-11-07T14:23:54.321Z,100512.94
2022-11-07T14:26:30.683Z,100509.31
2022-11-07T14:29:00.899Z,100497.94
2022-11-07T14:31:32.087Z,100492.06
2022-11-07T14:34:03.593Z,100485.94
2022-11-07T14:36:33.382Z,100487.59
2022-11-07T14:39:07.057Z,100479.16
2022-11-07T14:41:43.454Z,100471.22
2022-11-07T14:44:16.578Z,100472.00
2022-11-07T14:46:46.599Z,100469.41
2022-11-07T14:49:24.792Z,100464.31
2022-11-07T14:51:54.606Z,100461.66
2022-11-07T14:54:25.532Z,100457.38
2022-11-07T14:56:58.738Z,100454.88
2022-11-07T14:59:33.428Z,100458.28
2022-11-07T15:02:24.639Z,100451.25
2022-11-07T15:05:00.128Z,100447.06
2022-11-07T15:07:35.540Z,100443.41
2022-11-07T15:10:20.613Z,100440.50
2022-11-07T15:12:58.740Z,100424.78
2022-11-07T15:15:29.717Z,100419.41
2022-11-07T15:18:01.289Z,100410.78
2022-11-07T15:20:39.965Z,100404.63
2022-11-07T15:23:30.017Z,100393.38
2022-11-07T15:26:03.007Z,100389.88
2022-11-07T15:28:47.264Z,100383.91
2022-11-07T15:31:25.300Z,100379.66
2022-11-07T15:33:55.266Z,100382.34
2022-11-07T15:36:25.224Z,100385.75
2022-11-07T15:38:56.284Z,100393.38
2022-11-07T15:41:25.804Z,100395.25
2022-11-07T15:43:57.892Z,100396.88
2022-11-07T15:46:31.098Z,100395.25
2022-11-07T15:49:00.625Z,100402.22
2022-11-07T15:51:30.085Z,100411.72
2022-11-07T15:53:59.715Z,100410.84
2022-11-07T15:56:29.542Z,100405.72
2022-11-07T15:59:02.480Z,100408.38
2022-11-07T16:01:32.122Z,100416.94
2022-11-07T16:04:01.721Z,100422.91
2022-11-07T16:06:32.991Z,100436.66
2022-11-07T16:09:02.518Z,100438.41
2022-11-07T16:11:31.974Z,100442.84
2022-11-07T16:14:36.440Z,100436.88
2022-11-07T16:16:54.877Z,100447.31
2022-11-07T16:19:27.601Z,100449.94
2022-11-07T16:21:57.096Z,100452.56
2022-11-07T16:24:26.489Z,100456.91
2022-11-07T16:26:55.919Z,100464.66
2022-11-07T16:29:28.064Z,100469.94
2022-11-07T16:31:57.497Z,100470.84
2022-11-07T16:34:27.169Z,100476.16
2022-11-07T16:36:56.639Z,100483.97
2022-11-07T16:39:26.118Z,100489.16
2022-11-07T16:41:55.630Z,100492.66
2022-11-07T16:44:27.838Z,100496.19
2022-11-07T16:46:59.687Z,100507.38
2022-11-07T16:49:31.520Z,100514.34
2022-11-07T16:52:01.397Z,100522.16
2022-11-07T16:54:30.844Z,100511.06
2022-11-07T16:57:00.596Z,100525.72
2022-11-07T16:59:32.604Z,100521.28
2022-11-07T17:02:02.439Z,100537.06
2022-11-07T17:04:33.351Z,100535.31
2022-11-07T17:07:02.895Z,100530.06
2022-11-07T17:09:32.349Z,100540.53
2022-11-07T17:12:01.802Z,100538.81
2022-11-07T17:14:33.846Z,100543.19
2022-11-07T17:17:03.601Z,100545.78
2022-11-07T17:19:33.069Z,100547.50
2022-11-07T17:22:03.100Z,100551.91
2022-11-07T17:24:32.635Z,100554.50
2022-11-07T17:27:02.333Z,100558.81
2022-11-07T17:29:34.412Z,100558.00
2022-11-07T17:32:03.835Z,100567.50
2022-11-07T17:34:33.249Z,100569.38
2022-11-07T17:37:02.696Z,100566.78
2022-11-07T17:39:32.167Z,100565.06
2022-11-07T17:42:01.930Z,100568.59
2022-11-07T17:44:33.997Z,100575.41
2022-11-07T17:47:03.481Z,100578.03
2022-11-07T17:49:32.993Z,100573.78
2022-11-07T17:52:02.469Z,100583.28
2022-11-07T17:54:31.984Z,100586.72
2022-11-07T17:57:03.660Z,100589.28
2022-11-07T17:59:35.701Z,100578.81
2022-11-07T18:02:05.300Z,100590.03
2022-11-07T18:04:34.829Z,100572.66
2022-11-07T18:07:04.503Z,100576.91
2022-11-07T18:09:34.020Z,100570.78
2022-11-07T18:12:03.692Z,100577.63
2022-11-07T18:14:36.250Z,100571.59
2022-11-07T18:17:05.883Z,100560.22
2022-11-07T18:19:35.662Z,100555.91
2022-11-07T18:22:05.245Z,100552.47
2022-11-07T18:24:34.792Z,100560.97
2022-11-07T18:27:09.284Z,100549.69
2022-11-07T18:29:42.935Z,100547.22
2022-11-07T18:32:12.405Z,100548.91
2022-11-07T18:34:41.975Z,100552.28
2022-11-07T18:37:11.549Z,100542.69
2022-11-07T18:39:41.462Z,100545.91
2022-11-07T18:42:10.923Z,100542.34
2022-11-07T18:44:43.194Z,100543.31
2022-11-07T18:47:12.861Z,100539.75
2022-11-07T18:49:42.319Z,100536.25
2022-11-07T18:52:11.819Z,100527.78
2022-11-07T18:54:41.339Z,100539.88
2022-11-07T18:57:10.809Z,100529.63
2022-11-07T18:59:42.799Z,100530.59
2022-11-07T19:02:12.738Z,100539.22
2022-11-07T19:04:43.945Z,100537.59
2022-11-07T19:07:13.483Z,100541.16
2022-11-07T19:09:42.973Z,100536.06
2022-11-07T19:12:12.470Z,100546.53
2022-11-07T19:14:44.556Z,100544.09
2022-11-07T19:17:14.069Z,100541.59
2022-11-07T19:19:43.553Z,100546.00
2022-11-07T19:22:13.781Z,100551.28
2022-11-07T19:24:43.261Z,100558.25
2022-11-07T19:27:12.645Z,100561.78
2022-11-07T19:29:44.771Z,100562.66
2022-11-07T19:32:14.600Z,100570.34
2022-11-07T19:34:44.036Z,100572.19
2022-11-07T19:37:13.454Z,100574.84
2022-11-07T19:39:43.030Z,100580.97
2022-11-07T19:42:12.527Z,100581.88
2022-11-07T19:44:49.377Z,100577.47
2022-11-07T19:47:21.117Z,100587.69
2022-11-07T19:49:50.677Z,100589.28
2022-11-07T19:52:20.149Z,100589.91
2022-11-07T19:54:52.095Z,100574.41
2022-11-07T19:57:21.622Z,100573.38
2022-11-07T19:59:53.696Z,100572.44
2022-11-07T20:02:44.162Z,100574.94
2022-11-07T20:05:12.742Z,100565.25
2022-11-07T20:07:43.170Z,100557.44
2022-11-07T20:10:12.779Z,100552.03
2022-11-07T20:12:42.313Z,100544.00
2022-11-07T20:15:15.552Z,100542.34
2022-11-07T20:17:45.275Z,100532.84
2022-11-07T20:20:15.512Z,100525.03
2022-11-07T20:22:47.417Z,100523.34
2022-11-07T20:25:17.511Z,100525.91
2022-11-07T20:27:47.312Z,100519.00
2022-11-07T20:30:19.575Z,100513.91
2022-11-07T20:32:49.375Z,100518.88
2022-11-07T20:35:18.995Z,100511.09
2022-11-07T20:37:48.527Z,100507.53
2022-11-07T20:40:18.229Z,100508.34
2022-11-07T20:42:47.732Z,100508.09
2022-11-07T20:45:19.895Z,100505.44
2022-11-07T20:47:49.728Z,100498.53
2022-11-07T20:50:19.222Z,100490.66
2022-11-07T20:52:49.279Z,100495.81
2022-11-07T20:55:18.769Z,100489.03
2022-11-07T20:57:48.237Z,100487.09
2022-11-07T21:00:22.144Z,100485.41
2022-11-07T21:02:51.720Z,100486.22
2022-11-07T21:05:21.158Z,100489.72
2022-11-07T21:07:50.916Z,100488.84
2022-11-07T21:10:20.901Z,100486.25
2022-11-07T21:12:50.452Z,100490.72
2022-11-07T21:15:22.485Z,100483.03
2022-11-07T21:17:52.003Z,100487.16
2022-11-07T21:20:21.566Z,100492.38
2022-11-07T21:22:52.032Z,100492.41
2022-11-07T21:25:21.856Z,100496.56
2022-11-07T21:27:51.312Z,100496.50
2022-11-07T21:30:23.576Z,100498.19
2022-11-07T21:32:53.013Z,100495.66
2022-11-07T21:35:22.901Z,100490.44
2022-11-07T21:37:52.611Z,100495.72
2022-11-07T21:40:22.149Z,100499.22
2022-11-07T21:42:54.853Z,100494.88
2022-11-07T21:45:27.870Z,100495.81
2022-11-07T21:47:57.307Z,100496.66
2022-11-07T21:53:16.702Z,100502.84
2022-11-07T21:55:46.293Z,100503.69
2022-11-07T21:58:15.796Z,100509.84
2022-11-07T22:00:47.936Z,100508.19
2022-11-07T22:03:27.379Z,100509.06
2022-11-07T22:06:10.337Z,100516.06
2022-11-07T22:08:39.955Z,100526.63
2022-11-07T22:11:10.060Z,100523.25
2022-11-07T22:13:39.701Z,100526.63
2022-11-07T22:16:14.725Z,100531.09
2022-11-07T22:18:44.492Z,100538.97
2022-11-07T22:21:15.504Z,100544.22
2022-11-07T22:23:45.015Z,100547.84
2022-11-07T22:26:16.349Z,100555.59
2022-11-07T22:28:46.580Z,100569.59
2022-11-07T22:31:20.433Z,100572.22
2022-11-07T22:33:50.496Z,100587.88
2022-11-07T22:36:20.031Z,100589.56
2022-11-07T22:38:49.599Z,100599.06
2022-11-07T22:41:20.998Z,100596.75
2022-11-07T22:43:51.007Z,100603.72
2022-11-07T22:46:24.556Z,100610.59
2022-11-07T22:48:54.702Z,100607.19
2022-11-07T22:51:25.825Z,100610.59
2022-11-07T22:53:58.804Z,100619.31
2022-11-07T22:56:28.792Z,100609.72
2022-11-07T22:58:58.975Z,100622.69
2022-11-07T23:01:32.995Z,100620.28
2022-11-07T23:04:02.689Z,100636.66
2022-11-07T23:06:32.726Z,100642.81
2022-11-07T23:09:02.797Z,100633.34
2022-11-07T23:11:45.973Z,100631.59
2022-11-07T23:14:18.284Z,100634.41
2022-11-07T23:16:51.799Z,100635.34
2022-11-07T23:19:23.440Z,100648.38
2022-11-07T23:21:53.742Z,100652.72
2022-11-07T23:24:23.779Z,100650.13
2022-11-07T23:26:53.181Z,100651.00
2022-11-07T23:29:25.531Z,100647.63
2022-11-07T23:31:57.556Z,100653.56
2022-11-07T23:34:27.145Z,100653.56
2022-11-07T23:36:56.617Z,100651.94
2022-11-07T23:39:26.544Z,100646.78
2022-11-07T23:41:55.988Z,100649.38
2022-11-07T23:44:25.476Z,100653.69
2022-11-07T23:47:10.050Z,100651.19
2022-11-07T23:49:52.042Z,100651.06
2022-11-07T23:52:21.611Z,100645.94
2022-11-07T23:55:03.739Z,100647.63
2022-11-07T23:57:56.505Z,100639.94
